createdAt,value
2022-11-20T00:00:53.675Z,93.80
2022-11-20T00:03:25.372Z,94.40
2022-11-20T00:06:01.545Z,95.00
2022-11-20T00:08:33.252Z,95.60
2022-11-20T00:11:05.638Z,96.20
2022-11-20T00:13:37.358Z,97.50
2022-11-20T00:16:11.279Z,97.30
2022-11-20T00:18:45.838Z,98.10
2022-11-20T00:21:20.043Z,98.60
2022-11-20T00:23:55.291Z,99.00
2022-11-20T00:26:27.924Z,99.40
2022-11-20T00:29:00.333Z,99.80
2022-11-20T00:31:33.962Z,99.90
2022-11-20T00:34:05.758Z,99.90
2022-11-20T00:36:38.705Z,99.90
2022-11-20T00:39:10.397Z,99.90
2022-11-20T00:41:42.075Z,99.90
2022-11-20T00:44:13.697Z,99.90
2022-11-20T00:46:45.346Z,99.90
2022-11-20T00:49:17.077Z,99.90
2022-11-20T00:51:50.086Z,99.90
2022-11-20T00:54:21.745Z,99.90
2022-11-20T00:56:53.790Z,99.90
2022-11-20T00:59:25.458Z,99.90
2022-11-20T01:01:57.098Z,99.90
2022-11-20T01:04:28.808Z,99.90
2022-11-20T01:07:01.879Z,99.90
2022-11-20T01:09:33.706Z,99.90
2022-11-20T01:12:05.637Z,99.90
2022-11-20T01:14:37.426Z,99.90
2022-11-20T01:17:09.108Z,99.90
2022-11-20T01:19:40.838Z,99.90
2022-11-20T01:22:13.794Z,99.90
2022-11-20T01:24:45.518Z,99.90
2022-11-20T01:27:17.155Z,99.90
2022-11-20T01:29:48.856Z,99.90
2022-11-20T01:32:20.489Z,99.90
2022-11-20T01:34:52.139Z,99.90
2022-11-20T01:37:25.163Z,99.90
2022-11-20T01:39:56.861Z,99.90
2022-11-20T01:42:47.167Z,99.90
2022-11-20T01:45:37.548Z,99.90
2022-11-20T01:48:09.381Z,99.90
2022-11-20T01:50:41.767Z,99.90
2022-11-20T01:53:15.704Z,99.90
2022-11-20T01:55:50.415Z,99.90
2022-11-20T01:58:26.116Z,99.90
2022-11-20T02:00:57.893Z,99.90
2022-11-20T02:03:29.668Z,99.90
2022-11-20T02:06:07.533Z,99.90
2022-11-20T02:08:42.818Z,99.90
2022-11-20T02:11:21.114Z,99.90
2022-11-20T02:13:52.803Z,99.90
2022-11-20T02:16:29.495Z,99.90
2022-11-20T02:19:02.547Z,99.90
2022-11-20T02:21:39.864Z,99.90
2022-11-20T02:24:14.825Z,99.90
2022-11-20T02:26:51.482Z,99.90
2022-11-20T02:29:27.677Z,99.90
2022-11-20T02:32:03.018Z,99.90
2022-11-20T02:34:34.861Z,99.90
2022-11-20T02:37:06.628Z,99.90
2022-11-20T02:39:40.628Z,99.90
2022-11-20T02:42:14.683Z,99.90
2022-11-20T02:44:48.782Z,99.90
2022-11-20T02:47:20.441Z,99.90
2022-11-20T02:49:54.656Z,99.90
2022-11-20T02:52:26.678Z,99.90
2022-11-20T02:54:59.700Z,99.90
2022-11-20T02:57:31.363Z,99.90
2022-11-20T03:00:07.929Z,99.90
2022-11-20T03:02:39.664Z,99.90
2022-11-20T03:05:14.272Z,99.90
2022-11-20T03:07:46.113Z,99.90
2022-11-20T03:10:19.405Z,99.90
2022-11-20T03:12:53.707Z,99.90
2022-11-20T03:15:25.438Z,99.90
2022-11-20T03:17:59.330Z,99.90
2022-11-20T03:20:31.212Z,99.90
2022-11-20T03:23:06.348Z,99.90
2022-11-20T03:25:42.070Z,99.90
2022-11-20T03:28:13.757Z,99.90
2022-11-20T03:30:45.541Z,99.90
2022-11-20T03:33:18.889Z,99.90
2022-11-20T03:35:50.519Z,99.90
2022-11-20T03:38:24.758Z,99.90
2022-11-20T03:41:00.221Z,99.90
2022-11-20T03:43:32.372Z,99.90
2022-11-20T03:46:11.572Z,99.90
2022-11-20T03:48:47.493Z,99.90
2022-11-20T03:51:22.766Z,99.90
2022-11-20T03:53:55.510Z,99.90
2022-11-20T03:56:29.439Z,99.90
2022-11-20T03:59:01.489Z,99.90
2022-11-20T04:01:33.959Z,99.90
2022-11-20T04:04:06.035Z,99.90
2022-11-20T04:06:38.397Z,99.90
2022-11-20T04:09:10.103Z,99.90
2022-11-20T04:11:43.207Z,99.90
2022-11-20T04:14:22.162Z,99.90
2022-11-20T04:16:53.861Z,99.90
2022-11-20T04:19:25.481Z,99.90
2022-11-20T04:22:00.184Z,99.90
2022-11-20T04:24:34.219Z,99.90
2022-11-20T04:27:09.527Z,99.90
2022-11-20T04:29:46.379Z,99.90
2022-11-20T04:32:18.089Z,99.90
2022-11-20T04:34:51.562Z,99.90
2022-11-20T04:37:23.331Z,99.90
2022-11-20T04:39:55.198Z,99.90
2022-11-20T04:42:30.573Z,99.90
2022-11-20T04:45:05.693Z,99.90
2022-11-20T04:47:37.419Z,99.90
2022-11-20T04:50:09.594Z,99.90
2022-11-20T04:52:41.273Z,99.90
2022-11-20T04:55:15.437Z,99.90
2022-11-20T04:57:50.370Z,99.90
2022-11-20T05:00:26.063Z,99.90
2022-11-20T05:02:57.696Z,99.90
2022-11-20T05:05:29.321Z,99.90
2022-11-20T05:08:03.464Z,99.90
2022-11-20T05:10:35.150Z,99.90
2022-11-20T05:13:08.164Z,99.90
2022-11-20T05:15:39.924Z,99.90
2022-11-20T05:18:11.931Z,99.90
2022-11-20T05:20:48.747Z,99.90
2022-11-20T05:23:20.515Z,99.90
2022-11-20T05:25:58.524Z,99.90
2022-11-20T05:28:32.221Z,99.90
2022-11-20T05:31:09.939Z,99.90
2022-11-20T05:33:45.624Z,99.90
2022-11-20T05:36:19.215Z,99.90
2022-11-20T05:38:51.618Z,99.90
2022-11-20T05:41:27.005Z,99.90
2022-11-20T05:44:00.129Z,99.90
2022-11-20T05:46:35.061Z,99.90
2022-11-20T05:49:06.724Z,99.90
2022-11-20T05:51:38.578Z,99.90
2022-11-20T05:54:10.264Z,99.90
2022-11-20T05:56:41.923Z,99.90
2022-11-20T05:59:14.956Z,99.90
2022-11-20T06:01:46.631Z,99.90
2022-11-20T06:04:18.278Z,99.90
2022-11-20T06:06:49.954Z,99.90
2022-11-20T06:09:21.761Z,99.90
2022-11-20T06:11:53.663Z,99.90
2022-11-20T06:14:26.652Z,99.90
2022-11-20T06:16:58.505Z,99.90
2022-11-20T06:19:30.408Z,99.90
2022-11-20T06:22:02.096Z,99.90
2022-11-20T06:24:33.785Z,99.90
2022-11-20T06:27:11.460Z,99.90
2022-11-20T06:29:44.547Z,99.90
2022-11-20T06:32:16.295Z,99.90
2022-11-20T06:34:47.995Z,99.90
2022-11-20T06:37:19.692Z,99.90
2022-11-20T06:39:51.370Z,99.90
2022-11-20T06:42:23.060Z,99.90
2022-11-20T06:44:56.054Z,99.90
2022-11-20T06:47:27.812Z,99.90
2022-11-20T06:49:59.474Z,99.90
2022-11-20T06:52:31.176Z,99.90
2022-11-20T06:55:02.982Z,99.90
2022-11-20T06:57:34.633Z,99.90
2022-11-20T07:00:08.581Z,99.90
2022-11-20T07:02:40.282Z,99.90
2022-11-20T07:05:12.139Z,99.90
2022-11-20T07:07:43.840Z,99.90
2022-11-20T07:10:15.661Z,99.90
2022-11-20T07:12:49.910Z,99.90
2022-11-20T07:15:23.715Z,99.90
2022-11-20T07:17:55.388Z,99.90
2022-11-20T07:20:27.157Z,99.90
2022-11-20T07:22:59.085Z,99.90
2022-11-20T07:25:31.573Z,99.90
2022-11-20T07:28:03.263Z,99.90
2022-11-20T07:30:36.280Z,99.90
2022-11-20T07:33:07.944Z,99.90
2022-11-20T07:35:39.634Z,99.90
2022-11-20T07:38:11.333Z,99.90
2022-11-20T07:40:43.025Z,99.90
2022-11-20T07:43:14.691Z,99.90
2022-11-20T07:45:47.710Z,99.90
2022-11-20T07:48:19.363Z,99.90
2022-11-20T07:50:53.838Z,99.90
2022-11-20T07:53:25.700Z,99.90
2022-11-20T07:56:00.288Z,99.90
2022-11-20T07:58:33.880Z,99.90
2022-11-20T08:01:07.985Z,99.90
2022-11-20T08:03:39.885Z,99.90
2022-11-20T08:06:11.541Z,99.90
2022-11-20T08:08:43.299Z,99.90
2022-11-20T08:11:33.587Z,99.90
2022-11-20T08:14:14.057Z,99.90
2022-11-20T08:16:48.011Z,99.90
2022-11-20T08:19:20.508Z,99.90
2022-11-20T08:21:52.578Z,99.90
2022-11-20T08:24:24.323Z,99.90
2022-11-20T08:26:57.929Z,99.90
2022-11-20T08:29:29.787Z,99.90
2022-11-20T08:32:02.840Z,99.90
2022-11-20T08:34:34.529Z,99.90
2022-11-20T08:37:06.189Z,99.90
2022-11-20T08:39:37.858Z,99.90
2022-11-20T08:42:09.638Z,99.90
2022-11-20T08:44:41.293Z,99.90
2022-11-20T08:47:14.314Z,99.90
2022-11-20T08:49:45.955Z,99.90
2022-11-20T08:52:17.635Z,99.90
2022-11-20T08:54:49.318Z,99.90
2022-11-20T08:57:20.946Z,99.90
2022-11-20T09:00:06.067Z,99.90
2022-11-20T09:02:39.831Z,99.90
2022-11-20T09:05:11.464Z,99.90
2022-11-20T09:07:43.199Z,99.90
2022-11-20T09:10:30.169Z,99.90
2022-11-20T09:13:02.528Z,99.90
2022-11-20T09:15:34.900Z,99.90
2022-11-20T09:18:07.971Z,99.90
2022-11-20T09:20:39.778Z,99.90
2022-11-20T09:23:11.473Z,99.90
2022-11-20T09:25:43.329Z,99.90
2022-11-20T09:28:15.183Z,99.90
2022-11-20T09:30:46.857Z,99.90
2022-11-20T09:33:19.934Z,99.90
2022-11-20T09:35:51.650Z,99.90
2022-11-20T09:38:23.393Z,99.90
2022-11-20T09:40:57.651Z,99.90
2022-11-20T09:43:35.238Z,99.90
2022-11-20T09:46:10.300Z,99.90
2022-11-20T09:48:59.635Z,99.90
2022-11-20T09:51:37.473Z,99.90
2022-11-20T09:54:16.056Z,99.90
2022-11-20T09:56:49.920Z,99.90
2022-11-20T09:59:29.218Z,99.90
2022-11-20T10:02:01.793Z,99.90
2022-11-20T10:04:38.162Z,99.90
2022-11-20T10:10:06.089Z,99.90
2022-11-20T10:12:43.258Z,99.90
2022-11-20T10:15:23.542Z,99.90
2022-11-20T10:18:00.130Z,99.90
2022-11-20T10:20:39.425Z,99.90
2022-11-20T10:23:25.388Z,99.90
2022-11-20T10:26:01.598Z,99.90
2022-11-20T10:28:40.229Z,99.90
2022-11-20T10:31:13.464Z,99.90
2022-11-20T10:34:10.448Z,99.90
2022-11-20T10:36:42.062Z,99.90
2022-11-20T10:39:17.743Z,99.90
2022-11-20T10:41:51.658Z,99.90
2022-11-20T10:44:45.788Z,99.90
2022-11-20T10:47:18.381Z,99.90
2022-11-20T10:49:52.301Z,99.90
2022-11-20T10:52:30.738Z,99.90
2022-11-20T10:55:08.152Z,99.90
2022-11-20T10:57:47.881Z,99.90
2022-11-20T11:00:20.678Z,99.90
2022-11-20T11:02:54.014Z,99.90
2022-11-20T11:05:32.594Z,99.90
2022-11-20T11:08:06.174Z,99.90
2022-11-20T11:10:42.207Z,99.90
2022-11-20T11:13:20.570Z,99.90
2022-11-20T11:15:52.895Z,99.90
2022-11-20T11:18:25.150Z,99.90
2022-11-20T11:20:57.621Z,99.90
2022-11-20T11:23:35.430Z,99.90
2022-11-20T11:26:07.974Z,99.90
2022-11-20T11:28:39.730Z,99.90
2022-11-20T11:31:11.363Z,99.90
2022-11-20T11:33:42.995Z,99.90
2022-11-20T11:36:18.734Z,99.90
2022-11-20T11:38:53.472Z,99.90
2022-11-20T11:41:29.048Z,99.90
2022-11-20T11:44:20.569Z,99.90
2022-11-20T11:46:54.221Z,99.90
2022-11-20T11:49:26.146Z,99.90
2022-11-20T11:52:01.654Z,99.90
2022-11-20T11:54:38.012Z,99.90
2022-11-20T11:57:12.477Z,99.90
2022-11-20T11:59:55.254Z,99.90
2022-11-20T12:02:32.368Z,99.90
2022-11-20T12:05:09.355Z,99.90
2022-11-20T12:07:47.322Z,99.90
2022-11-20T12:10:23.583Z,99.90
2022-11-20T12:12:58.528Z,99.90
2022-11-20T12:15:31.320Z,99.90
2022-11-20T12:18:03.385Z,99.90
2022-11-20T12:20:39.979Z,99.90
2022-11-20T12:23:17.199Z,99.90
2022-11-20T12:25:55.242Z,99.90
2022-11-20T12:28:37.909Z,99.90
2022-11-20T12:31:15.958Z,99.90
2022-11-20T12:34:05.477Z,99.90
2022-11-20T12:36:46.164Z,99.90
2022-11-20T12:39:34.057Z,99.90
2022-11-20T12:43:05.924Z,99.90
2022-11-20T12:46:10.790Z,99.90
2022-11-20T12:49:09.807Z,99.90
2022-11-20T12:52:04.170Z,99.90
2022-11-20T12:54:59.063Z,99.90
2022-11-20T12:57:37.623Z,99.90
2022-11-20T13:00:12.334Z,99.90
2022-11-20T13:03:08.020Z,99.90
2022-11-20T13:05:44.579Z,99.90
2022-11-20T13:08:19.771Z,99.90
2022-11-20T13:10:55.700Z,99.90
2022-11-20T13:13:32.051Z,99.90
2022-11-20T13:16:05.674Z,99.90
2022-11-20T13:18:40.320Z,99.90
2022-11-20T13:21:18.088Z,99.90
2022-11-20T13:23:50.003Z,99.90
2022-11-20T13:26:24.350Z,99.90
2022-11-20T13:29:04.469Z,99.90
2022-11-20T13:31:37.680Z,99.90
2022-11-20T13:34:15.681Z,99.90
2022-11-20T13:36:52.329Z,99.90
2022-11-20T13:39:27.862Z,99.90
2022-11-20T13:42:01.321Z,99.90
2022-11-20T13:44:38.902Z,99.90
2022-11-20T13:47:22.811Z,99.90
2022-11-20T13:49:58.666Z,99.90
2022-11-20T13:52:47.465Z,99.90
2022-11-20T13:55:25.483Z,99.90
2022-11-20T13:58:18.814Z,99.90
2022-11-20T14:00:58.009Z,99.90
2022-11-20T14:06:31.077Z,99.90
2022-11-20T14:09:03.114Z,99.90
2022-11-20T14:11:34.927Z,99.90
2022-11-20T14:14:16.591Z,99.90
2022-11-20T14:16:49.589Z,99.90
2022-11-20T14:19:28.675Z,99.90
2022-11-20T14:22:19.691Z,99.90
2022-11-20T14:25:05.971Z,99.90
2022-11-20T14:27:39.636Z,99.90
2022-11-20T14:30:16.507Z,99.90
2022-11-20T14:32:49.488Z,99.90
2022-11-20T14:35:24.825Z,99.40
2022-11-20T14:37:58.395Z,98.50
2022-11-20T14:40:32.861Z,98.10
2022-11-20T14:43:17.239Z,98.20
2022-11-20T14:45:52.877Z,98.70
2022-11-20T14:48:31.276Z,99.00
2022-11-20T14:51:03.408Z,99.40
2022-11-20T14:53:37.877Z,99.40
2022-11-20T14:56:10.305Z,99.80
2022-11-20T14:58:42.150Z,99.80
2022-11-20T15:01:15.319Z,99.80
2022-11-20T15:03:47.152Z,99.10
2022-11-20T15:06:27.246Z,98.60
2022-11-20T15:09:00.510Z,97.70
2022-11-20T15:11:34.602Z,97.60
2022-11-20T15:14:12.814Z,97.30
2022-11-20T15:16:44.628Z,97.70
2022-11-20T15:19:19.870Z,97.60
2022-11-20T15:21:52.226Z,97.50
2022-11-20T15:24:25.731Z,97.60
2022-11-20T15:26:57.842Z,97.80
2022-11-20T15:29:29.681Z,98.00
2022-11-20T15:32:01.488Z,98.20
2022-11-20T15:34:36.426Z,98.40
2022-11-20T15:37:08.251Z,98.80
2022-11-20T15:39:41.532Z,99.10
2022-11-20T15:42:13.379Z,99.40
2022-11-20T15:44:45.211Z,99.70
2022-11-20T15:47:18.155Z,99.90
2022-11-20T15:49:49.816Z,99.90
2022-11-20T15:52:21.632Z,99.90
2022-11-20T15:54:54.626Z,99.90
2022-11-20T15:57:26.347Z,99.90
2022-11-20T15:59:58.765Z,99.90
2022-11-20T16:02:30.415Z,99.90
2022-11-20T16:05:02.096Z,99.90
2022-11-20T16:07:33.791Z,99.90
2022-11-20T16:10:07.362Z,99.90
2022-11-20T16:12:57.455Z,99.90
2022-11-20T16:15:47.715Z,99.90
2022-11-20T16:18:21.157Z,99.90
2022-11-20T16:20:53.638Z,99.90
2022-11-20T16:23:25.520Z,99.90
2022-11-20T16:25:58.796Z,99.90
2022-11-20T16:28:30.787Z,99.90
2022-11-20T16:31:09.731Z,99.90
2022-11-20T16:33:41.966Z,99.90
2022-11-20T16:36:15.384Z,99.90
2022-11-20T16:38:47.340Z,99.90
2022-11-20T16:41:20.725Z,99.90
2022-11-20T16:43:53.293Z,99.20
2022-11-20T16:46:27.368Z,99.00
2022-11-20T16:49:00.962Z,98.10
2022-11-20T16:51:35.407Z,97.30
2022-11-20T16:54:09.396Z,96.60
2022-11-20T16:56:42.950Z,96.20
2022-11-20T16:59:14.884Z,95.60
2022-11-20T17:01:46.809Z,95.10
2022-11-20T17:04:21.987Z,94.60
2022-11-20T17:06:54.159Z,94.20
2022-11-20T17:09:26.307Z,93.70
2022-11-20T17:12:00.008Z,93.30
2022-11-20T17:14:32.553Z,92.90
2022-11-20T17:17:04.377Z,92.50
2022-11-20T17:19:36.156Z,92.20
2022-11-20T17:22:07.993Z,92.00
2022-11-20T17:24:39.815Z,92.00
2022-11-20T17:27:12.987Z,92.00
2022-11-20T17:29:45.571Z,92.10
2022-11-20T17:32:17.394Z,92.20
2022-11-20T17:34:49.234Z,92.20
2022-11-20T17:37:21.106Z,92.20
2022-11-20T17:39:52.891Z,92.20
2022-11-20T17:42:29.863Z,92.10
2022-11-20T17:45:01.749Z,92.00
2022-11-20T17:47:37.138Z,92.10
2022-11-20T17:50:09.516Z,92.10
2022-11-20T17:52:41.300Z,92.00
2022-11-20T17:55:13.215Z,91.80
2022-11-20T17:57:52.452Z,91.60
2022-11-20T18:00:25.218Z,91.30
2022-11-20T18:02:57.302Z,91.30
2022-11-20T18:05:29.233Z,91.30
2022-11-20T18:08:01.138Z,91.40
2022-11-20T18:10:33.497Z,91.50
2022-11-20T18:13:06.676Z,91.60
2022-11-20T18:15:38.516Z,91.30
2022-11-20T18:18:10.566Z,91.30
2022-11-20T18:20:42.361Z,91.30
2022-11-20T18:23:14.225Z,91.20
2022-11-20T18:25:47.475Z,91.50
2022-11-20T18:28:20.709Z,91.80
2022-11-20T18:30:52.486Z,91.90
2022-11-20T18:33:28.414Z,92.10
2022-11-20T18:36:09.650Z,92.40
2022-11-20T18:38:44.737Z,92.50
2022-11-20T18:41:37.195Z,92.60
2022-11-20T18:44:33.720Z,92.50
2022-11-20T18:47:13.957Z,92.50
2022-11-20T18:49:52.642Z,92.60
2022-11-20T18:52:26.510Z,92.40
2022-11-20T18:54:58.544Z,92.30
2022-11-20T18:57:31.302Z,91.90
2022-11-20T19:00:09.256Z,91.80
2022-11-20T19:02:43.212Z,91.40
2022-11-20T19:05:15.338Z,91.50
2022-11-20T19:07:47.150Z,91.70
2022-11-20T19:10:20.133Z,91.80
2022-11-20T19:12:51.806Z,91.80
2022-11-20T19:15:24.804Z,92.20
2022-11-20T19:17:57.646Z,92.40
2022-11-20T19:21:10.470Z,98.70
2022-11-20T19:23:42.167Z,92.90
2022-11-20T19:26:14.088Z,93.20
2022-11-20T19:28:45.855Z,93.80
2022-11-20T19:31:24.269Z,94.00
2022-11-20T19:33:57.346Z,94.50
2022-11-20T19:36:29.901Z,95.20
2022-11-20T19:39:03.012Z,96.00
2022-11-20T19:41:35.474Z,96.00
2022-11-20T19:44:08.137Z,96.00
2022-11-20T19:46:41.673Z,97.60
2022-11-20T19:49:13.971Z,97.50
2022-11-20T19:51:46.190Z,97.40
2022-11-20T19:54:17.874Z,97.50
2022-11-20T19:56:50.515Z,98.00
2022-11-20T19:59:22.385Z,97.80
2022-11-20T20:01:55.777Z,97.80
2022-11-20T20:04:27.494Z,97.80
2022-11-20T20:07:06.974Z,97.90
2022-11-20T20:09:38.833Z,97.70
2022-11-20T20:12:10.698Z,97.60
2022-11-20T20:14:42.615Z,97.40
2022-11-20T20:17:15.768Z,97.30
2022-11-20T20:19:47.599Z,97.20
2022-11-20T20:22:19.411Z,97.20
2022-11-20T20:24:52.219Z,97.00
2022-11-20T20:27:24.119Z,97.20
2022-11-20T20:29:55.945Z,97.20
2022-11-20T20:32:30.374Z,97.10
2022-11-20T20:35:02.319Z,97.10
2022-11-20T20:37:34.231Z,97.10
2022-11-20T20:40:09.742Z,96.90
2022-11-20T20:42:44.095Z,97.10
2022-11-20T20:45:16.465Z,97.20
2022-11-20T20:47:49.739Z,97.30
2022-11-20T20:50:21.724Z,97.30
2022-11-20T20:52:53.758Z,97.40
2022-11-20T20:55:25.631Z,97.60
2022-11-20T20:57:57.304Z,97.50
2022-11-20T21:25:39.256Z,99.90
2022-11-20T21:28:14.401Z,99.90
2022-11-20T21:30:48.635Z,99.90
2022-11-20T21:33:20.328Z,99.90
2022-11-20T21:35:54.532Z,99.90
2022-11-20T21:38:26.192Z,99.90
2022-11-20T21:40:59.488Z,99.90
2022-11-20T21:43:31.288Z,99.90
2022-11-20T21:46:06.185Z,99.90
2022-11-20T21:48:39.749Z,99.90
2022-11-20T21:51:12.500Z,99.90
2022-11-20T21:54:01.030Z,99.90
2022-11-20T21:56:37.786Z,99.90
2022-11-20T21:59:14.502Z,99.90
2022-11-20T22:01:46.163Z,99.90
2022-11-20T22:04:18.069Z,99.90
2022-11-20T22:06:49.918Z,99.90
2022-11-20T22:09:24.238Z,99.90
2022-11-20T22:11:57.231Z,99.90
2022-11-20T22:14:29.149Z,99.90
2022-11-20T22:17:00.951Z,99.90
2022-11-20T22:19:32.680Z,99.90
2022-11-20T22:22:07.472Z,99.90
2022-11-20T22:24:46.352Z,99.90
2022-11-20T22:27:19.584Z,99.90
2022-11-20T22:29:54.001Z,99.90
2022-11-20T22:32:28.081Z,99.90
2022-11-20T22:34:59.952Z,99.90
2022-11-20T22:37:31.598Z,99.90
2022-11-20T22:40:07.186Z,99.90
2022-11-20T22:42:43.248Z,99.90
2022-11-20T22:45:15.479Z,99.90
2022-11-20T22:47:53.083Z,99.90
2022-11-20T22:50:24.772Z,99.90
2022-11-20T22:52:56.389Z,99.90
2022-11-20T22:55:28.114Z,99.90
2022-11-20T22:58:01.343Z,99.90
2022-11-20T23:00:33.126Z,99.90
2022-11-20T23:03:10.065Z,99.90
2022-11-20T23:05:44.363Z,99.90
2022-11-20T23:08:23.541Z,99.90
2022-11-20T23:10:58.371Z,99.90
2022-11-20T23:13:31.394Z,99.90
2022-11-20T23:16:06.965Z,99.90
2022-11-20T23:18:39.031Z,99.90
2022-11-20T23:21:16.106Z,99.90
2022-11-20T23:23:53.216Z,99.80
2022-11-20T23:26:29.061Z,99.90
2022-11-20T23:29:07.474Z,99.90
2022-11-20T23:31:39.270Z,99.70
2022-11-20T23:34:20.155Z,99.90
2022-11-20T23:36:52.062Z,99.90
2022-11-20T23:39:26.136Z,99.90
2022-11-20T23:42:15.931Z,99.90
2022-11-20T23:44:51.178Z,99.90
2022-11-20T23:47:31.968Z,99.90
2022-11-20T23:50:03.982Z,99.90
2022-11-20T23:52:36.173Z,99.90
2022-11-20T23:55:16.092Z,99.90
2022-11-20T23:57:50.927Z,99.90
